Time;durP1;ratioP1;P1;durP2;ratioP2;P2;SDS_P1;SDS_P2;PMS_P1;PMS_P2;Temp;Humidity;BMP_temperature;BMP_pressure;BME280_temperature;BME280_humidity;BME280_pressure;Samples;Min_cycle;Max_cycle;Signal;HPM_P1;HPM_P2
2022/05/03 00:02:06;;;;;;;1.13;0.55;;;;;;;19.67;28.60;101834.25;16128215;19;129448;-55
2022/05/03 00:08:08;;;;;;;1.02;0.60;;;;;;;19.66;28.66;101838.09;16133054;19;129875;-55
2022/05/03 00:13:42;;;;;;;0.75;0.50;;;;;;;19.64;28.91;101841.13;16128532;19;129794;-55
2022/05/03 00:19:05;;;;;;;1.08;0.60;;;;;;;19.63;29.02;101833.03;16130993;19;129517;-56
2022/05/03 00:24:28;;;;;;;0.32;0.32;;;;;;;19.61;28.95;101824.91;16125974;19;129386;-56
2022/05/03 00:29:52;;;;;;;0.95;0.50;;;;;;;19.59;28.98;101815.97;16131049;19;129754;-55
2022/05/03 00:35:16;;;;;;;0.70;0.50;;;;;;;19.58;29.11;101825.38;16130691;19;129281;-57
2022/05/03 00:40:44;;;;;;;0.40;0.40;;;;;;;19.56;28.84;101816.44;16125929;19;129512;-55
2022/05/03 00:46:13;;;;;;;1.35;0.40;;;;;;;19.55;28.90;101814.75;16130128;19;130043;-56
2022/05/03 00:51:44;;;;;;;0.70;0.47;;;;;;;19.54;29.19;101818.59;16137822;19;129270;-52
2022/05/03 00:57:15;;;;;;;0.98;0.88;;;;;;;19.54;29.13;101813.06;16138942;19;129936;-53
2022/05/03 01:03:19;;;;;;;0.60;0.60;;;;;;;19.51;28.88;101811.56;16135557;19;128854;-53
2022/05/03 01:09:06;;;;;;;1.38;0.63;;;;;;;19.50;29.24;101814.59;16134135;19;129811;-55
2022/05/03 01:14:43;;;;;;;2.10;0.40;;;;;;;19.47;29.11;101817.81;16134715;19;129001;-56
2022/05/03 01:20:06;;;;;;;0.65;0.50;;;;;;;19.44;29.25;101812.75;16139083;19;130005;-54
2022/05/03 01:25:44;;;;;;;0.68;0.50;;;;;;;19.45;29.31;101815.28;16134193;19;128980;-56
2022/05/03 01:31:11;;;;;;;0.60;0.52;;;;;;;19.44;29.00;101812.75;16137005;19;129487;-56
2022/05/03 01:36:56;;;;;;;0.40;0.40;;;;;;;19.43;29.13;101816.59;16136555;19;129837;-56
2022/05/03 01:42:51;;;;;;;2.20;0.43;;;;;;;19.41;28.87;101807.66;16133576;19;130979;-56
2022/05/03 01:50:18;;;;;;;0.80;0.55;;;;;;;19.38;28.97;101804.25;16135514;19;130428;-54
2022/05/03 01:54:37;;;;;;;0.70;0.50;;;;;;;19.37;29.15;101793.41;16129576;19;130515;-56
2022/05/03 02:00:10;;;;;;;1.58;0.80;;;;;;;19.36;29.40;101798.06;16130870;19;129484;-56
2022/05/03 02:05:35;;;;;;;1.10;0.50;;;;;;;19.34;28.96;101796.63;16127570;19;129278;-55
2022/05/03 02:11:29;;;;;;;1.33;0.60;;;;;;;19.32;29.28;101799.59;16133030;19;129197;-56
2022/05/03 02:17:13;;;;;;;2.05;0.40;;;;;;;19.32;29.37;101794.06;16130794;19;131909;-56
2022/05/03 02:22:50;;;;;;;0.45;0.28;;;;;;;19.31;29.39;101795.16;16139951;19;129713;-57
2022/05/03 02:28:36;;;;;;;0.57;0.57;;;;;;;19.30;29.46;101801.78;16141583;19;130726;-56
2022/05/03 02:34:18;;;;;;;0.63;0.50;;;;;;;19.29;29.10;101797.31;16140138;19;129435;-56
2022/05/03 02:40:04;;;;;;;1.17;0.47;;;;;;;19.28;29.44;101792.84;16137214;19;129559;-56
2022/05/03 02:45:33;;;;;;;0.68;0.45;;;;;;;19.24;29.06;101786.03;16134696;19;130792;-56
2022/05/03 02:51:02;;;;;;;0.60;0.50;;;;;;;19.24;29.05;101797.13;16143037;19;129964;-56
2022/05/03 02:57:19;;;;;;;0.77;0.50;;;;;;;19.20;29.49;101802.28;16137653;19;130451;-57
2022/05/03 03:02:51;;;;;;;0.73;0.50;;;;;;;19.21;29.54;101800.38;16129438;19;130128;-56
2022/05/03 03:08:19;;;;;;;0.95;0.43;;;;;;;19.21;29.22;101798.47;16134242;19;129517;-52
2022/05/03 03:13:56;;;;;;;0.60;0.45;;;;;;;19.21;29.70;101797.59;16133195;19;129256;-57
2022/05/03 03:19:36;;;;;;;0.70;0.50;;;;;;;19.20;29.21;101801.44;16136966;19;129575;-55
2022/05/03 03:24:58;;;;;;;0.75;0.50;;;;;;;19.19;29.58;101794.19;16131100;19;130234;-56
2022/05/03 03:30:21;;;;;;;0.50;0.50;;;;;;;19.16;29.38;101789.94;16134612;19;131019;-56
2022/05/03 03:35:44;;;;;;;1.48;0.82;;;;;;;19.16;29.34;101800.19;16144428;19;130160;-56
2022/05/03 03:41:07;;;;;;;1.85;0.55;;;;;;;19.15;29.38;101802.09;16144756;19;129405;-56
2022/05/03 03:46:28;;;;;;;3.13;0.50;;;;;;;19.14;29.36;101794.03;16139705;19;129313;-55
2022/05/03 03:51:51;;;;;;;0.75;0.43;;;;;;;19.14;29.84;101796.78;16141242;19;129866;-56
2022/05/03 03:57:13;;;;;;;0.77;0.68;;;;;;;19.13;29.46;101795.09;16141681;19;129109;-56
2022/05/03 04:02:35;;;;;;;1.38;0.70;;;;;;;19.12;29.49;101807.25;16136881;19;130873;-55
2022/05/03 04:07:57;;;;;;;0.85;0.55;;;;;;;19.11;29.45;101803.66;16142193;19;129596;-56
2022/05/03 04:13:19;;;;;;;1.25;0.57;;;;;;;19.10;29.85;101809.41;16139838;19;129939;-53
2022/05/03 04:18:44;;;;;;;0.73;0.57;;;;;;;19.08;29.65;101807.72;16141455;19;129497;-51
2022/05/03 04:24:07;;;;;;;1.33;0.60;;;;;;;19.08;29.63;101804.94;16138885;19;130917;-53
2022/05/03 04:29:28;;;;;;;0.70;0.70;;;;;;;19.06;29.56;101815.44;16140529;19;129516;-56
2022/05/03 04:34:50;;;;;;;1.58;0.90;;;;;;;19.07;29.65;101813.50;16140935;19;129330;-55
2022/05/03 04:40:12;;;;;;;0.60;0.60;;;;;;;19.05;29.80;101813.75;16139299;19;129834;-54
2022/05/03 04:45:39;;;;;;;0.95;0.45;;;;;;;19.05;29.63;101819.28;16137511;19;128833;-53
2022/05/03 04:51:01;;;;;;;1.05;0.65;;;;;;;19.04;29.91;101813.94;16141073;19;129228;-55
2022/05/03 04:56:24;;;;;;;1.13;0.60;;;;;;;19.03;29.64;101815.88;16133824;19;129274;-57
2022/05/03 05:01:45;;;;;;;0.52;0.47;;;;;;;19.02;29.63;101821.63;16141046;19;129358;-55
2022/05/03 05:07:07;;;;;;;0.95;0.80;;;;;;;19.01;30.03;101825.50;16133500;19;129918;-55
2022/05/03 05:12:30;;;;;;;0.68;0.68;;;;;;;19.01;29.70;101820.81;16134574;19;128819;-56
2022/05/03 05:17:54;;;;;;;2.15;0.77;;;;;;;19.02;29.90;101822.50;16139002;19;129968;-53
2022/05/03 05:23:16;;;;;;;2.20;0.75;;;;;;;19.06;30.03;101822.88;16136464;19;129952;-56
2022/05/03 05:28:42;;;;;;;2.92;0.50;;;;;;;19.12;30.12;101827.53;16138948;19;129139;-54
2022/05/03 05:34:03;;;;;;;2.70;0.50;;;;;;;19.18;29.76;101831.31;16136394;19;129559;-55
2022/05/03 05:39:26;;;;;;;1.27;0.50;;;;;;;19.23;29.83;101842.59;16133768;19;129796;-51
2022/05/03 05:44:48;;;;;;;2.17;0.60;;;;;;;19.33;30.32;101831.00;16132370;19;129041;-52
2022/05/03 05:50:11;;;;;;;2.67;0.60;;;;;;;19.47;30.33;101834.47;16133604;19;129817;-54
2022/05/03 05:55:32;;;;;;;2.17;0.70;;;;;;;19.57;30.71;101837.53;16145163;19;129789;-55
2022/05/03 06:00:54;;;;;;;5.25;0.75;;;;;;;19.66;30.40;101840.88;16150938;19;129256;-54
2022/05/03 06:06:16;;;;;;;3.95;0.80;;;;;;;19.75;30.37;101844.19;16148706;19;130140;-55
2022/05/03 06:11:37;;;;;;;2.00;0.70;;;;;;;19.84;30.63;101862.25;16150560;19;129037;-54
2022/05/03 06:16:59;;;;;;;4.32;0.60;;;;;;;19.91;30.34;101851.91;16151707;19;129018;-54
2022/05/03 06:22:21;;;;;;;2.45;0.70;;;;;;;19.98;30.65;101855.44;16152862;19;131372;-56
2022/05/03 06:27:43;;;;;;;2.28;0.52;;;;;;;20.04;30.43;101856.47;16148809;19;129054;-55
2022/05/03 06:33:05;;;;;;;2.78;0.75;;;;;;;20.08;30.10;101852.16;16148913;19;129868;-56
2022/05/03 06:38:27;;;;;;;0.77;0.50;;;;;;;20.11;30.01;101850.81;16148748;19;129451;-56
2022/05/03 06:43:49;;;;;;;1.95;0.50;;;;;;;20.13;30.27;101855.06;16147533;19;129190;-54
2022/05/03 06:49:10;;;;;;;0.98;0.63;;;;;;;20.17;30.17;101865.72;16148606;19;129549;-56
2022/05/03 06:54:32;;;;;;;2.03;0.93;;;;;;;20.20;30.19;101868.88;16144716;19;129237;-56
2022/05/03 06:59:54;;;;;;;1.80;0.70;;;;;;;20.24;30.03;101872.88;16147489;19;130844;-53
2022/05/03 07:05:16;;;;;;;1.40;0.60;;;;;;;20.27;29.97;101877.97;16139578;19;128926;-53
2022/05/03 07:10:39;;;;;;;1.00;0.50;;;;;;;20.31;29.75;101877.50;16146746;19;129039;-54
2022/05/03 07:16:01;;;;;;;4.45;0.93;;;;;;;20.32;29.75;101884.75;16138592;19;130003;-52
2022/05/03 07:27:03;;;;;;;4.90;0.95;;;;;;;20.38;29.84;101878.25;16141158;19;131563;-55
2022/05/03 07:32:25;;;;;;;1.17;0.60;;;;;;;20.40;29.42;101876.09;16144978;19;129644;-56
2022/05/03 07:37:46;;;;;;;2.30;0.70;;;;;;;20.43;29.35;101883.97;16144889;19;129538;-55
2022/05/03 07:43:08;;;;;;;4.32;0.88;;;;;;;20.46;29.77;101886.25;16144836;19;129941;-56
2022/05/03 07:48:30;;;;;;;4.55;0.70;;;;;;;20.49;29.62;101885.78;16140685;19;129235;-54
2022/05/03 07:53:52;;;;;;;1.98;0.50;;;;;;;20.51;29.54;101883.63;16140347;19;129837;-57
2022/05/03 07:59:14;;;;;;;5.20;1.15;;;;;;;20.53;29.50;101881.47;16143010;19;129084;-56
2022/05/03 08:04:35;;;;;;;2.53;0.57;;;;;;;20.56;29.48;101891.25;16141035;19;129331;-54
2022/05/03 08:09:57;;;;;;;1.08;0.40;;;;;;;20.57;29.29;101888.22;16141070;19;129412;-55
2022/05/03 08:15:20;;;;;;;3.50;0.80;;;;;;;20.60;29.46;101890.56;16138250;19;129537;-56
2022/05/03 08:20:42;;;;;;;1.15;0.47;;;;;;;20.63;29.27;101893.94;16141814;19;129345;-57
2022/05/03 08:26:05;;;;;;;2.47;0.70;;;;;;;20.63;29.36;101896.72;16137922;19;131134;-57
2022/05/03 08:31:27;;;;;;;1.08;0.60;;;;;;;20.62;29.05;101893.09;16143658;19;129861;-55
2022/05/03 08:42:29;;;;;;;1.13;0.65;;;;;;;20.64;29.09;101899.25;16138803;19;129119;-57
2022/05/03 08:47:51;;;;;;;1.20;0.55;;;;;;;20.64;29.08;101888.13;16134776;19;129144;-57
2022/05/03 08:53:13;;;;;;;3.17;0.60;;;;;;;20.64;29.22;101901.22;16138263;19;129676;-56
2022/05/03 08:58:35;;;;;;;0.77;0.47;;;;;;;20.63;29.25;101893.94;16138507;19;129263;-56
2022/05/03 09:03:57;;;;;;;2.75;0.55;;;;;;;20.62;29.08;101895.03;16135165;19;129675;-54
2022/05/03 09:09:21;;;;;;;2.50;0.70;;;;;;;20.63;29.26;101896.72;16139602;19;131467;-56
2022/05/03 09:14:43;;;;;;;1.80;0.60;;;;;;;20.62;29.51;101892.25;16133864;19;129504;-53
2022/05/03 09:26:11;;;;;;;1.15;0.60;;;;;;;20.60;29.52;101887.78;16131679;19;129386;-54
2022/05/03 09:31:39;;;;;;;2.78;0.65;;;;;;;20.57;29.42;101893.78;16138068;19;129285;-57
2022/05/03 09:37:05;;;;;;;0.63;0.63;;;;;;;20.57;29.17;101896.56;16137704;19;129565;-56
2022/05/03 09:42:30;;;;;;;2.08;0.45;;;;;;;20.55;29.24;101892.34;16132172;19;129039;-55
2022/05/03 09:47:54;;;;;;;1.73;0.65;;;;;;;20.54;29.59;101890.66;16132521;19;129387;-54
2022/05/03 09:53:18;;;;;;;4.20;0.90;;;;;;;20.52;29.77;101893.66;16133503;19;128938;-55
2022/05/03 09:58:41;;;;;;;0.97;0.60;;;;;;;20.49;29.48;101885.78;16135914;19;129606;-55
2022/05/03 10:04:07;;;;;;;1.48;0.70;;;;;;;20.49;29.88;101871.91;16132217;19;130936;-55
2022/05/03 10:09:30;;;;;;;2.88;0.80;;;;;;;20.49;29.53;101879.41;16134044;19;128830;-55
2022/05/03 10:14:51;;;;;;;3.67;0.80;;;;;;;20.48;29.74;101874.94;16129184;19;129576;-57
2022/05/03 10:20:37;;;;;;;2.88;0.60;;;;;;;20.48;29.58;101867.41;16134655;19;130081;-57
2022/05/03 10:26:09;;;;;;;8.05;0.88;;;;;;;20.48;29.70;101867.41;16129306;19;129113;-56
2022/05/03 10:31:31;;;;;;;4.60;1.07;;;;;;;20.49;29.77;101862.72;16132997;19;130051;-55
2022/05/03 10:36:53;;;;;;;2.10;0.98;;;;;;;20.50;29.87;101861.63;16134671;19;130142;-57
2022/05/03 10:42:22;;;;;;;2.23;0.60;;;;;;;20.50;29.89;101859.69;16142713;19;129811;-57
2022/05/03 10:47:44;;;;;;;4.65;0.80;;;;;;;20.50;30.03;101848.56;16143014;19;128972;-56
2022/05/03 10:53:07;;;;;;;2.22;0.82;;;;;;;20.48;30.15;101850.75;16145873;19;129560;-57
2022/05/03 10:58:32;;;;;;;1.83;0.80;;;;;;;20.49;30.20;101840.50;16147282;19;129978;-56
2022/05/03 11:03:59;;;;;;;1.10;0.60;;;;;;;20.48;30.07;101845.19;16143313;19;129647;-57
2022/05/03 11:09:29;;;;;;;1.92;1.00;;;;;;;20.49;30.44;101832.97;16145894;19;129169;-53
2022/05/03 11:14:54;;;;;;;3.80;0.80;;;;;;;20.48;30.32;101838.78;16142526;19;129573;-55
2022/05/03 11:20:22;;;;;;;4.75;1.00;;;;;;;20.48;30.87;101827.66;16142473;19;130542;-56
2022/05/03 11:25:44;;;;;;;4.97;0.80;;;;;;;20.47;30.72;101826.81;16142387;19;130214;-56
2022/05/03 11:31:07;;;;;;;0.88;0.68;;;;;;;20.48;30.57;101811.00;16139830;19;130664;-56
2022/05/03 11:36:29;;;;;;;1.52;0.80;;;;;;;20.46;30.46;101802.88;16142356;19;130485;-54
2022/05/03 11:41:50;;;;;;;2.00;1.15;;;;;;;20.47;30.67;101793.44;16138432;19;129544;-55
2022/05/03 11:47:14;;;;;;;3.13;0.88;;;;;;;20.45;30.38;101796.47;16137533;19;129962;-54
2022/05/03 11:58:16;;;;;;;2.88;0.88;;;;;;;20.44;30.34;101788.38;16141478;19;129992;-56
2022/05/03 12:03:49;;;;;;;3.47;0.95;;;;;;;20.44;30.18;101777.25;16141504;19;129028;-56
2022/05/03 12:09:16;;;;;;;2.15;0.90;;;;;;;20.43;30.45;101784.75;16141790;19;131475;-56
2022/05/03 12:14:37;;;;;;;3.17;0.73;;;;;;;20.43;30.23;101775.56;16136833;19;129199;-56
2022/05/03 12:20:04;;;;;;;2.53;1.10;;;;;;;20.43;30.37;101775.56;16136599;19;129861;-55
2022/05/03 12:25:27;;;;;;;1.63;1.00;;;;;;;20.43;30.36;101770.03;16132156;19;130416;-54
2022/05/03 12:30:57;;;;;;;5.22;1.40;;;;;;;20.42;29.78;101771.09;16140634;19;129564;-55
2022/05/03 12:36:41;;;;;;;5.28;1.23;;;;;;;20.39;29.90;101766.00;16138235;19;129758;-55
2022/05/03 12:42:10;;;;;;;8.88;2.00;;;;;;;20.40;29.97;101764.94;16138660;19;128981;-56
2022/05/03 12:47:32;;;;;;;23.88;2.50;;;;;;;20.47;30.44;101765.66;16135319;19;129953;-57
2022/05/03 12:52:54;;;;;;;23.25;2.85;;;;;;;20.55;30.41;101740.31;16139957;19;129210;-54
2022/05/03 12:58:27;;;;;;;13.48;2.63;;;;;;;20.60;30.85;101745.97;16134448;19;130047;-55
2022/05/03 13:03:49;;;;;;;13.45;1.70;;;;;;;20.58;30.51;101739.81;16136675;19;129495;-57
2022/05/03 13:09:16;;;;;;;11.25;1.73;;;;;;;20.54;30.49;101741.41;16131670;19;129708;-56
2022/05/03 13:14:39;;;;;;;10.70;1.58;;;;;;;20.51;30.24;101727.97;16133979;19;129339;-56
2022/05/03 13:20:01;;;;;;;6.78;1.52;;;;;;;20.50;30.69;101725.41;16138726;19;129686;-55
2022/05/03 13:25:23;;;;;;;9.10;1.45;;;;;;;20.48;30.48;101720.09;16135714;19;128963;-56
2022/05/03 13:30:45;;;;;;;7.40;1.08;;;;;;;20.48;30.44;101725.66;16138232;19;129556;-55
2022/05/03 13:41:47;;;;;;;10.48;1.02;;;;;;;20.47;30.26;101712.84;16136249;19;129626;-54
2022/05/03 13:47:11;;;;;;;5.72;1.17;;;;;;;20.44;30.47;101710.53;16133509;19;129711;-56
2022/05/03 13:52:35;;;;;;;4.10;1.30;;;;;;;20.41;30.39;101716.59;16135202;19;128773;-54
2022/05/03 13:57:57;;;;;;;4.10;1.50;;;;;;;20.39;30.28;101716.81;16134374;19;129699;-54
2022/05/03 14:03:19;;;;;;;5.80;1.83;;;;;;;20.38;30.67;101717.06;16133027;19;130235;-57
2022/05/03 14:08:46;;;;;;;3.47;1.58;;;;;;;20.35;30.41;101717.53;16128271;19;129210;-56
2022/05/03 14:14:09;;;;;;;3.83;1.30;;;;;;;20.35;30.43;101725.88;16138849;19;129161;-55
2022/05/03 14:19:31;;;;;;;2.45;1.40;;;;;;;20.34;30.40;101722.25;16147808;19;129306;-54
2022/05/03 14:24:53;;;;;;;5.85;1.77;;;;;;;20.33;30.45;101714.16;16146221;19;129937;-55
2022/05/03 14:30:16;;;;;;;3.70;1.85;;;;;;;20.31;30.29;101708.84;16147824;19;129239;-55
2022/05/03 14:35:37;;;;;;;4.00;1.75;;;;;;;20.30;30.31;101704.38;16148620;19;129541;-57
2022/05/03 14:40:59;;;;;;;34.13;3.80;;;;;;;20.28;30.47;101698.19;16146827;19;129689;-54
2022/05/03 14:46:21;;;;;;;15.85;2.75;;;;;;;20.33;31.03;101697.47;16143776;19;129606;-54
2022/05/03 14:51:43;;;;;;;10.77;2.65;;;;;;;20.38;30.76;101701.22;16145833;19;129879;-55
2022/05/03 15:02:57;;;;;;;7.50;1.63;;;;;;;20.34;30.62;101690.84;16147577;19;129679;-56
2022/05/03 15:08:19;;;;;;;6.22;1.40;;;;;;;20.33;30.73;101700.25;16144197;19;130742;-55
2022/05/03 15:13:41;;;;;;;7.50;1.33;;;;;;;20.32;30.64;101695.78;16145450;19;129532;-56
2022/05/03 15:19:03;;;;;;;6.57;1.30;;;;;;;20.32;30.91;101695.78;16144995;19;129660;-55
2022/05/03 15:24:37;;;;;;;4.25;1.20;;;;;;;20.33;30.99;101691.91;16142842;19;129461;-57
2022/05/03 15:29:58;;;;;;;6.00;1.73;;;;;;;20.32;30.82;101690.22;16139636;19;129109;-56
2022/05/03 15:35:20;;;;;;;2.50;1.40;;;;;;;20.28;31.16;101685.16;16140609;19;130568;-56
2022/05/03 15:40:44;;;;;;;3.65;1.60;;;;;;;20.26;30.86;101686.47;16142033;19;129412;-56
2022/05/03 15:46:07;;;;;;;6.35;1.98;;;;;;;20.21;31.25;101689.13;16141178;19;129803;-54
2022/05/03 15:51:29;;;;;;;7.57;2.72;;;;;;;20.17;31.27;101691.56;16142149;19;129465;-50
2022/05/03 15:56:51;;;;;;;8.77;3.05;;;;;;;20.14;31.47;101695.63;16140054;19;130097;-51
2022/05/03 16:02:13;;;;;;;11.05;2.90;;;;;;;20.17;31.81;101697.09;16144725;19;129262;-54
2022/05/03 16:07:35;;;;;;;7.82;3.00;;;;;;;20.19;31.79;101697.69;16140965;19;129015;-49
2022/05/03 16:12:57;;;;;;;5.47;3.30;;;;;;;20.20;32.20;101690.22;16138490;19;129876;-53
2022/05/03 16:18:19;;;;;;;6.88;3.33;;;;;;;20.18;31.93;101696.03;16142873;19;128877;-52
2022/05/03 16:23:41;;;;;;;7.97;3.30;;;;;;;20.17;31.76;101694.31;16142104;19;129598;-48
2022/05/03 16:29:02;;;;;;;9.43;3.88;;;;;;;20.17;32.10;101691.56;16137196;19;128873;-54
2022/05/03 16:34:24;;;;;;;9.60;3.50;;;;;;;20.17;32.33;101688.78;16139840;19;129067;-54
2022/05/03 16:45:27;;;;;;;8.20;4.45;;;;;;;20.17;32.30;101680.44;16141708;19;130294;-57
2022/05/03 16:50:50;;;;;;;9.15;4.60;;;;;;;20.14;32.15;101680.91;16139909;19;130474;-50
2022/05/03 16:56:13;;;;;;;9.88;5.20;;;;;;;20.15;32.40;101693.72;16130457;19;130269;-55
2022/05/03 17:01:37;;;;;;;9.95;5.75;;;;;;;20.16;33.35;101687.06;16135576;19;129388;-54
2022/05/03 17:06:59;;;;;;;13.10;6.95;;;;;;;20.15;33.09;101696.50;16134982;19;129048;-55
2022/05/03 17:12:20;;;;;;;10.80;6.88;;;;;;;20.12;33.65;101708.06;16135460;19;129548;-55
2022/05/03 17:17:42;;;;;;;12.45;7.20;;;;;;;20.07;33.62;101705.16;16135767;19;131512;-54
2022/05/03 17:23:04;;;;;;;10.57;7.25;;;;;;;20.06;33.67;101709.88;16138439;19;129309;-55
2022/05/03 17:28:26;;;;;;;13.02;7.28;;;;;;;20.06;33.93;101714.59;16137288;19;129665;-53
2022/05/03 17:33:50;;;;;;;12.32;7.22;;;;;;;20.06;33.81;101717.38;16137337;19;130023;-55
2022/05/03 17:39:12;;;;;;;9.45;6.90;;;;;;;20.01;34.00;101712.50;16134881;19;130007;-53
2022/05/03 17:44:33;;;;;;;11.23;7.47;;;;;;;19.98;34.11;101721.28;16136740;19;129000;-49
2022/05/03 17:49:56;;;;;;;11.43;7.03;;;;;;;19.97;34.11;101734.31;16129590;19;129674;-48
2022/05/03 17:55:23;;;;;;;14.45;6.82;;;;;;;19.96;34.13;101732.63;16135162;19;129352;-51
2022/05/03 18:00:45;;;;;;;9.60;6.25;;;;;;;19.96;34.14;101738.19;16135644;19;129410;-49
2022/05/03 18:06:08;;;;;;;8.63;6.20;;;;;;;19.96;34.22;101738.19;16135152;19;129439;-52
2022/05/03 18:11:30;;;;;;;9.55;5.78;;;;;;;19.97;34.04;101744.59;16130307;19;129553;-49
2022/05/03 18:16:52;;;;;;;9.57;5.72;;;;;;;19.98;34.13;101747.13;16134362;19;129028;-54
2022/05/03 18:22:14;;;;;;;9.80;5.43;;;;;;;20.01;34.28;101747.78;16127637;19;129485;-55
2022/05/03 18:27:36;;;;;;;10.35;4.97;;;;;;;20.02;34.48;101746.69;16125989;19;129670;-53
2022/05/03 18:32:58;;;;;;;13.48;5.45;;;;;;;20.04;34.34;101744.53;16130315;19;130606;-54
2022/05/03 18:38:21;;;;;;;12.57;5.25;;;;;;;20.08;34.11;101751.28;16130779;19;130114;-48
2022/05/03 18:43:43;;;;;;;8.80;4.43;;;;;;;20.14;34.17;101747.59;16130372;19;130348;-52
2022/05/03 18:49:05;;;;;;;10.50;4.30;;;;;;;20.35;34.26;101753.66;16123982;19;129852;-54
2022/05/03 19:00:12;;;;;;;7.90;3.05;;;;;;;21.00;33.53;101763.09;16133769;19;130596;-53
2022/05/03 19:05:34;;;;;;;14.50;3.50;;;;;;;21.26;33.16;101761.72;16144671;19;129235;-54
2022/05/03 19:10:56;;;;;;;13.68;3.03;;;;;;;21.44;32.81;101762.69;16139863;19;129500;-52
2022/05/03 19:16:17;;;;;;;9.55;3.38;;;;;;;21.58;32.78;101766.91;16135375;19;129277;-54
2022/05/03 19:21:40;;;;;;;8.63;3.00;;;;;;;21.69;33.05;101770.75;16140391;19;131724;-50
2022/05/03 19:32:45;;;;;;;7.70;3.08;;;;;;;21.64;32.99;101781.78;16144278;19;129034;-51
2022/05/03 19:38:10;;;;;;;11.07;3.42;;;;;;;21.58;33.47;101791.13;16144465;19;130254;-45
2022/05/03 19:43:35;;;;;;;7.28;3.10;;;;;;;21.49;33.09;101794.28;16143156;19;130719;-53
2022/05/03 19:48:57;;;;;;;9.70;2.80;;;;;;;21.39;33.16;101799.59;16142450;19;129289;-50
2022/05/03 19:54:19;;;;;;;9.57;3.20;;;;;;;21.31;33.37;101814.72;16137891;19;129262;-52
2022/05/03 19:59:41;;;;;;;4.40;2.60;;;;;;;21.22;33.62;101814.25;16143032;19;129843;-48
2022/05/03 20:05:04;;;;;;;9.45;2.60;;;;;;;21.14;33.44;101817.41;16143060;19;129706;-49
2022/05/03 20:10:26;;;;;;;6.60;2.63;;;;;;;21.07;33.99;101819.44;16135602;19;130170;-45
2022/05/03 20:15:48;;;;;;;3.72;2.53;;;;;;;21.04;34.06;101817.16;16135282;19;129256;-46
2022/05/03 20:21:10;;;;;;;12.65;1.90;;;;;;;21.01;33.96;101825.97;16138841;19;129525;-47
2022/05/03 20:26:34;;;;;;;5.72;2.17;;;;;;;21.04;34.02;101825.50;16136605;19;129267;-53
2022/05/03 20:31:56;;;;;;;4.40;2.00;;;;;;;21.22;33.62;101828.16;16138493;19;131069;-53
2022/05/03 20:37:18;;;;;;;7.20;1.73;;;;;;;21.46;33.65;101833.72;16137980;19;129418;-54
2022/05/03 20:42:41;;;;;;;4.65;1.58;;;;;;;21.58;33.04;101836.53;16138858;19;129479;-49
2022/05/03 20:53:43;;;;;;;5.40;2.10;;;;;;;21.61;33.35;101837.97;16137119;19;129393;-46
2022/05/03 20:59:05;;;;;;;8.70;1.90;;;;;;;21.56;33.29;101844.28;16133642;19;129327;-53
2022/05/03 21:04:27;;;;;;;7.68;2.28;;;;;;;21.45;33.14;101848.72;16133675;19;130059;-54
2022/05/03 21:09:48;;;;;;;6.53;1.80;;;;;;;21.35;33.37;101849.31;16130003;19;129905;-54
2022/05/03 21:15:11;;;;;;;5.32;2.05;;;;;;;21.27;33.49;101854.44;16128618;19;132272;-50
2022/05/03 21:20:34;;;;;;;6.75;2.53;;;;;;;21.13;33.25;101860.22;16130722;19;130915;-53
2022/05/03 21:25:55;;;;;;;4.32;2.20;;;;;;;21.02;33.05;101847.16;16121295;19;130432;-56
2022/05/03 21:31:28;;;;;;;4.40;1.90;;;;;;;20.93;33.04;101851.34;16126392;19;130189;-56
2022/05/03 21:36:50;;;;;;;3.70;1.85;;;;;;;20.81;33.41;101849.41;16135925;19;129187;-54
2022/05/03 21:42:12;;;;;;;4.25;1.50;;;;;;;20.74;33.36;101855.03;16134448;19;129831;-56
2022/05/03 21:47:33;;;;;;;3.67;1.92;;;;;;;20.72;33.56;101856.38;16128780;19;129307;-54
2022/05/03 21:52:55;;;;;;;3.90;1.80;;;;;;;20.65;33.64;101861.19;16132959;19;128864;-55
2022/05/03 21:58:17;;;;;;;3.55;2.00;;;;;;;20.62;33.57;101868.06;16134486;19;129362;-54
2022/05/03 22:03:40;;;;;;;3.25;2.03;;;;;;;20.58;33.22;101867.69;16130525;19;130249;-54
2022/05/03 22:09:02;;;;;;;7.82;2.40;;;;;;;20.54;33.37;101871.19;16129267;19;129101;-52
2022/05/03 22:14:24;;;;;;;5.53;2.03;;;;;;;20.49;33.41;101863.56;16130206;19;129249;-53
2022/05/03 22:19:46;;;;;;;4.50;2.05;;;;;;;20.44;33.00;101869.81;16134187;19;129696;-55
2022/05/03 22:25:09;;;;;;;4.68;2.15;;;;;;;20.40;32.83;101865.81;16133192;19;129372;-55
2022/05/03 22:30:31;;;;;;;6.70;2.20;;;;;;;20.38;33.34;101867.16;16128519;19;129418;-54
2022/05/03 22:35:54;;;;;;;4.70;1.85;;;;;;;20.33;33.27;101870.63;16141901;19;129561;-54
2022/05/03 22:41:15;;;;;;;3.97;1.77;;;;;;;20.32;33.26;101873.63;16141866;19;130055;-55
2022/05/03 22:46:37;;;;;;;4.63;1.90;;;;;;;20.26;33.02;101873.50;16141980;19;129177;-56
2022/05/03 22:51:59;;;;;;;2.28;1.60;;;;;;;20.23;32.82;101881.47;16147988;19;129644;-56
2022/05/03 22:57:21;;;;;;;2.90;1.92;;;;;;;20.18;33.00;101867.41;16146520;19;131855;-53
2022/05/03 23:02:43;;;;;;;4.72;1.88;;;;;;;20.16;33.08;101869.56;16145902;19;130702;-57
2022/05/03 23:08:05;;;;;;;4.60;1.80;;;;;;;20.12;33.04;101864.47;16143755;19;128837;-54
2022/05/03 23:13:26;;;;;;;3.05;1.83;;;;;;;20.09;32.80;101875.22;16144415;19;129771;-54
2022/05/03 23:18:48;;;;;;;4.00;1.80;;;;;;;20.06;32.65;101870.16;16146076;19;130204;-53
2022/05/03 23:24:10;;;;;;;5.30;2.05;;;;;;;20.02;33.03;101872.50;16144821;19;129480;-54
2022/05/03 23:29:32;;;;;;;3.47;1.70;;;;;;;19.99;32.84;101870.19;16142469;19;129695;-55
2022/05/03 23:35:13;;;;;;;5.47;2.10;;;;;;;19.97;33.00;101873.19;16144446;19;129957;-53
2022/05/03 23:40:34;;;;;;;2.38;1.40;;;;;;;19.93;32.56;101883.09;16144984;19;129494;-53
2022/05/03 23:46:08;;;;;;;2.92;1.50;;;;;;;19.93;33.08;101874.75;16143783;19;130637;-54
2022/05/03 23:51:30;;;;;;;3.53;1.40;;;;;;;19.90;33.02;101872.44;16139074;19;129283;-55
2022/05/03 23:56:52;;;;;;;3.22;1.48;;;;;;;19.89;32.57;101870.72;16141224;19;129337;-52
